Time;durP1;ratioP1;P1;durP2;ratioP2;P2;SDS_P1;SDS_P2;PMS_P1;PMS_P2;Temp;Humidity;BMP_temperature;BMP_pressure;BME280_temperature;BME280_humidity;BME280_pressure;Samples;Min_cycle;Max_cycle;Signal;HPM_P1;HPM_P2
2022/07/12 00:05:55;;;;;;;8.82;7.90;;;13.80;99.90;;;;;;21065570;28;20120;-59
2022/07/12 00:15:58;;;;;;;15.77;10.88;;;13.90;99.90;;;;;;21065562;28;20036;-53
2022/07/12 00:26:04;;;;;;;11.50;9.75;;;14.00;99.90;;;;;;21022152;28;20040;-58
2022/07/12 00:36:08;;;;;;;13.20;11.80;;;14.10;99.90;;;;;;20980031;28;20040;-53
2022/07/12 00:46:10;;;;;;;15.38;10.43;;;14.00;99.90;;;;;;20978471;28;20339;-52
2022/07/12 00:56:14;;;;;;;14.82;10.90;;;14.00;99.90;;;;;;20986592;28;20439;-53
2022/07/12 01:06:18;;;;;;;13.02;9.95;;;14.20;99.90;;;;;;21060683;28;20449;-58
2022/07/12 01:16:21;;;;;;;10.32;9.23;;;14.30;99.90;;;;;;21077171;28;20054;-59
2022/07/12 01:26:24;;;;;;;10.00;8.35;;;14.50;99.90;;;;;;21059432;28;20032;-59
2022/07/12 01:36:27;;;;;;;10.02;8.02;;;14.70;99.90;;;;;;21058678;28;20113;-57
2022/07/12 01:46:30;;;;;;;10.73;8.65;;;14.90;99.90;;;;;;21027566;28;20444;-54
2022/07/12 01:56:32;;;;;;;7.57;6.47;;;14.90;99.90;;;;;;20972468;28;20102;-55
2022/07/12 02:06:35;;;;;;;11.23;7.53;;;15.00;99.90;;;;;;20972346;28;20106;-53
2022/07/12 02:16:38;;;;;;;9.80;7.50;;;15.00;99.90;;;;;;20973333;28;20032;-54
2022/07/12 02:26:41;;;;;;;8.00;7.20;;;15.00;99.90;;;;;;21013012;28;20032;-52
2022/07/12 02:36:44;;;;;;;9.98;5.95;;;15.10;99.90;;;;;;21054005;28;20552;-58
2022/07/12 02:46:46;;;;;;;11.77;9.30;;;14.90;99.90;;;;;;21053492;28;20065;-59
2022/07/12 02:56:48;;;;;;;11.35;9.50;;;14.40;99.90;;;;;;21038874;28;20041;-58
2022/07/12 03:06:50;;;;;;;9.98;8.98;;;14.20;99.90;;;;;;20967761;28;20048;-59
2022/07/12 03:16:53;;;;;;;8.40;6.70;;;14.40;99.90;;;;;;20967811;28;20032;-53
2022/07/12 03:26:55;;;;;;;10.48;7.00;;;14.60;99.90;;;;;;20967455;28;20044;-58
2022/07/12 03:36:58;;;;;;;7.82;6.22;;;14.80;99.90;;;;;;20951434;28;20037;-52
2022/07/12 03:47:01;;;;;;;8.65;6.20;;;14.80;99.90;;;;;;21000988;28;20036;-53
2022/07/12 03:57:16;;;;;;;9.02;6.60;;;14.60;99.90;;;;;;21066809;28;20439;-58
2022/07/12 05:10:24;;;;;;;5.50;4.32;;;16.60;99.90;;;;;;20981945;28;20420;-59
2022/07/12 05:20:27;;;;;;;6.78;4.57;;;17.30;99.90;;;;;;20893723;28;20033;-53
2022/07/12 05:30:29;;;;;;;4.80;3.75;;;17.90;99.90;;;;;;20893181;28;20078;-58
2022/07/12 05:40:31;;;;;;;6.18;4.15;;;17.90;99.90;;;;;;20892926;28;20033;-59
2022/07/12 05:50:33;;;;;;;3.20;2.90;;;18.40;99.90;;;;;;21019883;28;20439;-59
2022/07/12 06:00:36;;;;;;;4.35;3.55;;;18.80;99.90;;;;;;21007745;28;20033;-59
2022/07/12 06:10:38;;;;;;;4.78;3.60;;;18.80;99.90;;;;;;20964831;28;20044;-59
2022/07/12 06:20:42;;;;;;;5.57;3.38;;;18.90;99.90;;;;;;20989593;28;20025;-53
2022/07/12 06:30:44;;;;;;;5.78;3.90;;;18.90;99.90;;;;;;20956539;28;20489;-59
2022/07/12 06:40:46;;;;;;;5.28;4.40;;;18.80;99.90;;;;;;20969794;28;20041;-55
2022/07/12 06:50:49;;;;;;;4.30;3.45;;;18.60;99.90;;;;;;20969649;28;20565;-60
2022/07/12 07:00:51;;;;;;;7.93;3.97;;;19.00;99.90;;;;;;20969032;28;20032;-59
2022/07/12 07:10:54;;;;;;;3.83;3.20;;;20.10;99.90;;;;;;20968860;28;20082;-59
2022/07/12 07:20:57;;;;;;;5.35;3.38;;;19.30;99.90;;;;;;20967730;28;20033;-60
2022/07/12 07:31:01;;;;;;;4.05;2.83;;;19.40;99.90;;;;;;20968471;28;20071;-60
2022/07/12 07:41:04;;;;;;;6.20;4.40;;;19.80;99.90;;;;;;20967040;28;20033;-60
2022/07/12 07:51:06;;;;;;;6.60;3.10;;;20.70;99.90;;;;;;20952517;28;20435;-60
2022/07/12 08:01:08;;;;;;;5.53;3.47;;;21.70;99.90;;;;;;20982900;28;20085;-60
2022/07/12 08:11:11;;;;;;;4.65;3.10;;;21.70;99.90;;;;;;20982209;28;20048;-59
2022/07/12 08:21:14;;;;;;;4.72;3.88;;;20.80;99.90;;;;;;20982911;28;20078;-60
2022/07/12 08:31:16;;;;;;;5.45;3.83;;;19.80;99.90;;;;;;21064029;28;20035;-59
2022/07/12 08:41:18;;;;;;;4.90;4.25;;;18.80;99.90;;;;;;21064002;28;20032;-54
2022/07/12 08:51:22;;;;;;;5.18;4.20;;;18.40;99.90;;;;;;21079302;28;20392;-53
2022/07/12 09:01:45;;;;;;;4.60;3.90;;;19.10;99.90;;;;;;20992468;28;20389;-60
2022/07/12 09:11:48;;;;;;;6.53;3.53;;;19.90;99.90;;;;;;20976816;28;20130;-57
2022/07/12 09:21:54;;;;;;;4.15;3.63;;;21.30;99.90;;;;;;20975648;28;20032;-59
2022/07/12 09:42:18;;;;;;;4.07;3.67;;;22.30;99.90;;;;;;20974475;28;20032;-61
2022/07/12 09:52:23;;;;;;;3.55;2.50;;;22.80;99.90;;;;;;21036621;28;20473;-57
2022/07/12 10:02:26;;;;;;;4.15;2.53;;;23.00;99.40;;;;;;20991127;28;20397;-56
2022/07/12 10:12:29;;;;;;;3.90;2.63;;;23.00;98.20;;;;;;20965609;28;20117;-57
2022/07/12 10:22:32;;;;;;;3.78;2.50;;;23.80;96.40;;;;;;20983040;28;20040;-61
2022/07/12 10:32:35;;;;;;;3.03;2.15;;;23.80;95.60;;;;;;21053580;28;20089;-61
2022/07/12 10:42:37;;;;;;;2.53;1.92;;;23.30;96.90;;;;;;21052760;28;20027;-60
2022/07/12 10:52:40;;;;;;;3.30;2.47;;;23.30;96.20;;;;;;21051812;28;20032;-60
2022/07/12 11:02:43;;;;;;;8.43;2.70;;;22.40;96.70;;;;;;21006487;28;20028;-60
2022/07/12 11:12:45;;;;;;;4.40;2.50;;;21.10;98.70;;;;;;20966758;28;20079;-60
2022/07/12 11:22:49;;;;;;;2.63;2.20;;;21.00;99.10;;;;;;20966546;28;20028;-62
2022/07/12 11:32:51;;;;;;;3.22;2.38;;;21.90;99.50;;;;;;20966847;28;20036;-62
2022/07/12 11:42:58;;;;;;;3.03;2.10;;;23.80;95.80;;;;;;20965592;28;20405;-62
2022/07/12 11:53:00;;;;;;;5.68;2.10;;;23.50;96.50;;;;;;20882480;28;20401;-63
2022/07/12 12:03:03;;;;;;;3.35;2.17;;;24.00;95.10;;;;;;20882408;28;20098;-62
2022/07/12 12:13:14;;;;;;;4.20;2.10;;;25.40;94.50;;;;;;20881538;28;20111;-61
2022/07/12 12:23:20;;;;;;;3.85;3.00;;;26.60;90.60;;;;;;20920065;28;20052;-62
2022/07/12 12:33:45;;;;;;;5.38;2.95;;;25.40;91.50;;;;;;21046820;28;20068;-62
2022/07/12 12:43:48;;;;;;;6.40;3.22;;;25.30;92.50;;;;;;21058917;28;20077;-62
2022/07/12 12:53:57;;;;;;;7.03;3.72;;;24.90;92.80;;;;;;21061387;28;20093;-61
2022/07/12 13:03:59;;;;;;;5.00;3.17;;;24.60;93.10;;;;;;21001411;28;20291;-61
2022/07/12 13:14:02;;;;;;;5.50;3.33;;;24.20;93.90;;;;;;21009601;28;20048;-61
2022/07/12 13:24:06;;;;;;;5.95;3.50;;;23.40;95.10;;;;;;20976221;28;20040;-60
2022/07/12 13:34:08;;;;;;;6.20;3.17;;;22.90;93.90;;;;;;20974771;28;20040;-61
2022/07/12 13:44:11;;;;;;;6.03;3.15;;;22.70;98.20;;;;;;20984184;28;20446;-61
2022/07/12 13:54:13;;;;;;;3.85;2.80;;;22.60;97.50;;;;;;21056350;28;20032;-62
2022/07/12 14:04:16;;;;;;;3.72;2.92;;;23.10;97.20;;;;;;20975092;28;20041;-61
2022/07/12 14:15:13;;;;;;;3.90;3.20;;;22.80;96.40;;;;;;20970843;28;20052;-61
2022/07/12 14:24:41;;;;;;;6.68;3.72;;;22.30;97.60;;;;;;21002062;28;20109;-61
2022/07/12 14:34:44;;;;;;;4.90;3.53;;;22.30;97.60;;;;;;21054322;28;20057;-62
2022/07/12 14:44:46;;;;;;;4.15;3.75;;;23.40;97.20;;;;;;21053712;28;20485;-56
2022/07/12 14:54:50;;;;;;;4.03;3.05;;;23.50;95.40;;;;;;21037779;28;20086;-61
2022/07/12 15:04:53;;;;;;;5.03;4.15;;;22.30;97.60;;;;;;20964713;28;20036;-60
2022/07/12 15:14:58;;;;;;;3.50;3.20;;;21.70;99.10;;;;;;20968970;28;20032;-61
2022/07/12 15:25:01;;;;;;;7.07;4.55;;;21.50;99.60;;;;;;20951451;28;20040;-57
2022/07/12 15:35:07;;;;;;;5.30;3.88;;;21.20;98.90;;;;;;20967423;28;20040;-58
2022/07/12 15:45:13;;;;;;;3.55;3.03;;;21.30;99.90;;;;;;21002405;28;20077;-62
2022/07/12 15:55:16;;;;;;;4.35;3.22;;;21.30;99.90;;;;;;21050277;28;20044;-61
2022/07/12 16:05:19;;;;;;;5.20;3.63;;;21.30;99.90;;;;;;21050260;28;20113;-60
2022/07/12 16:15:21;;;;;;;4.72;3.33;;;21.60;99.90;;;;;;20976742;28;20045;-57
2022/07/12 16:25:23;;;;;;;4.68;3.47;;;21.90;99.90;;;;;;20981355;28;20094;-57
2022/07/12 16:35:26;;;;;;;6.47;4.38;;;21.70;99.90;;;;;;20980505;28;20033;-56
2022/07/12 16:45:30;;;;;;;5.55;4.13;;;21.20;99.90;;;;;;20980623;28;20037;-60
2022/07/12 16:55:32;;;;;;;4.95;3.75;;;20.70;99.90;;;;;;20981425;28;20037;-60
2022/07/12 17:05:35;;;;;;;3.92;3.50;;;20.30;99.90;;;;;;21062017;28;20109;-60
2022/07/12 17:15:39;;;;;;;4.57;4.00;;;20.00;99.90;;;;;;21060929;28;20446;-60
2022/07/12 17:25:41;;;;;;;4.07;3.55;;;19.80;99.90;;;;;;21059694;28;20070;-60
2022/07/12 17:35:44;;;;;;;5.20;3.33;;;19.40;99.90;;;;;;21059406;28;20105;-59
2022/07/12 17:45:47;;;;;;;5.78;3.10;;;19.10;99.90;;;;;;21034250;28;20036;-60
2022/07/12 17:55:49;;;;;;;4.53;4.13;;;18.80;99.90;;;;;;20973636;28;20062;-60
2022/07/12 18:05:51;;;;;;;6.60;4.03;;;18.50;99.90;;;;;;20972655;28;20044;-60
2022/07/12 18:15:54;;;;;;;4.72;4.30;;;18.20;99.90;;;;;;20973752;28;20032;-60
2022/07/12 18:25:56;;;;;;;5.88;4.40;;;17.80;99.90;;;;;;21012418;28;20040;-61
2022/07/12 18:35:59;;;;;;;6.75;5.35;;;17.40;99.90;;;;;;21053618;28;20039;-59
2022/07/12 18:46:02;;;;;;;5.90;5.30;;;17.10;99.90;;;;;;21053716;28;20441;-59
2022/07/12 18:56:04;;;;;;;6.45;5.70;;;16.80;99.90;;;;;;21046358;28;20045;-60
2022/07/12 19:06:07;;;;;;;7.65;5.68;;;16.40;99.90;;;;;;20968567;28;20067;-59
2022/07/12 19:16:10;;;;;;;8.35;5.95;;;15.90;99.90;;;;;;20968336;28;20025;-56
2022/07/12 19:26:12;;;;;;;9.88;7.88;;;15.70;99.90;;;;;;20970120;28;20090;-59
2022/07/12 19:36:16;;;;;;;9.57;7.95;;;15.30;99.90;;;;;;20961961;28;20447;-59
2022/07/12 19:46:18;;;;;;;12.48;10.27;;;15.00;99.90;;;;;;20943225;28;20316;-60
2022/07/12 19:56:21;;;;;;;13.35;10.27;;;14.70;99.90;;;;;;21066959;28;20039;-59
2022/07/12 20:06:23;;;;;;;15.18;12.25;;;14.50;99.90;;;;;;21066666;28;20040;-54
2022/07/12 20:16:25;;;;;;;14.73;13.18;;;14.40;99.90;;;;;;21066011;28;20036;-54
2022/07/12 20:26:28;;;;;;;15.55;13.23;;;14.20;99.90;;;;;;21018877;28;20091;-59
2022/07/12 20:36:31;;;;;;;13.75;12.23;;;14.00;99.90;;;;;;20964899;28;20041;-53
2022/07/12 20:46:34;;;;;;;12.68;11.38;;;13.90;99.90;;;;;;20979747;28;20032;-52
2022/07/12 20:56:37;;;;;;;13.02;11.23;;;13.90;99.90;;;;;;20990690;28;20031;-55
2022/07/12 21:06:40;;;;;;;15.98;13.88;;;13.90;99.90;;;;;;21061516;28;20466;-52
2022/07/12 21:16:43;;;;;;;19.20;13.63;;;13.80;99.90;;;;;;21061275;28;20089;-59
2022/07/12 21:26:46;;;;;;;16.17;12.50;;;13.80;99.90;;;;;;21059878;28;20040;-59
2022/07/12 21:36:49;;;;;;;16.38;14.65;;;13.70;99.90;;;;;;21059353;28;20032;-58
2022/07/12 21:46:52;;;;;;;15.25;13.55;;;13.60;99.90;;;;;;21026281;28;20033;-59
2022/07/12 21:56:55;;;;;;;14.02;12.43;;;13.70;99.90;;;;;;20974089;28;20172;-59
2022/07/12 22:06:57;;;;;;;13.50;12.13;;;13.70;99.90;;;;;;20972843;28;20066;-59
2022/07/12 22:17:00;;;;;;;12.15;10.95;;;13.30;99.90;;;;;;20971422;28;20044;-59
2022/07/12 22:27:02;;;;;;;14.85;13.18;;;13.20;99.90;;;;;;21023026;28;20040;-59
2022/07/12 22:37:05;;;;;;;13.68;11.95;;;13.10;99.90;;;;;;21054769;28;20036;-59
2022/07/12 22:47:07;;;;;;;16.88;13.27;;;13.20;99.90;;;;;;21053279;28;20089;-54
2022/07/12 22:57:10;;;;;;;14.30;12.80;;;13.40;99.90;;;;;;21037496;28;20554;-54
2022/07/12 23:07:12;;;;;;;12.25;10.95;;;13.10;99.90;;;;;;20968433;28;20495;-58
2022/07/12 23:17:14;;;;;;;12.95;11.57;;;12.90;99.90;;;;;;20969649;28;20185;-59
2022/07/12 23:27:17;;;;;;;13.10;11.70;;;12.80;99.90;;;;;;20967465;28;20037;-58
2022/07/12 23:37:20;;;;;;;16.10;12.32;;;12.70;99.90;;;;;;20968843;28;20090;-59
2022/07/12 23:47:23;;;;;;;14.05;12.55;;;12.70;99.90;;;;;;21004071;28;20040;-54
2022/07/12 23:57:25;;;;;;;16.17;13.38;;;12.60;99.90;;;;;;21049838;28;20040;-59
